Wetterdaten: Woche 24.08.09 - 30.08.09 (KW35)
Datum Zeit Temp. Innen Temp. Aussen UV X Diff Temp. Feuchte Inne Feuchte Auss Sonnenschein Luftdruck Regen ab 0,1 Wind Sonnenschein Windben
24.08.2009 00:00 23,7 C 16,6 C 0,0 UV-I 0,0 C 47 % 65 % 0 % 1016,3 hPa 0,0 l/m 0,0 km/h (0 Bft) 0,00 h 0,0 km/h (0 Bft)
24.08.2009 01:00 23,4 C 15,3 C 0,0 UV-I 0,0 C 48 % 71 % 0 % 1015,6 hPa 0,0 l/m 0,0 km/h (0 Bft) 0,00 h 0,0 km/h (0 Bft)
24.08.2009 02:00 23,1 C 14,4 C 0,0 UV-I 0,0 C 48 % 73 % 0 % 1014,6 hPa 0,0 l/m 0,1 km/h (0 Bft) 0,00 h 0,4 km/h (0 Bft)
24.08.2009 03:00 22,9 C 14,0 C 0,0 UV-I 0,0 C 48 % 74 % 0 % 1013,9 hPa 0,0 l/m 0,0 km/h (0 Bft) 0,00 h 0,0 km/h (0 Bft)
24.08.2009 04:00 22,6 C 13,3 C 0,0 UV-I 0,0 C 49 % 77 % 0 % 1013,3 hPa 0,0 l/m 0,0 km/h (0 Bft) 0,00 h 0,0 km/h (0 Bft)
24.08.2009 05:00 22,3 C 12,6 C 0,0 UV-I 0,0 C 49 % 80 % 0 % 1012,5 hPa 0,0 l/m 0,0 km/h (0 Bft) 0,00 h 0,0 km/h (0 Bft)
24.08.2009 06:00 22,2 C 12,0 C 0,0 UV-I 0,0 C 50 % 83 % 0 % 1012,3 hPa 0,0 l/m 0,0 km/h (0 Bft) 0,00 h 0,0 km/h (0 Bft)
24.08.2009 07:00 22,1 C 13,0 C 0,2 UV-I 0,7 C 50 % 83 % 20 % 1012,1 hPa 0,0 l/m 0,5 km/h (0 Bft) 0,00 h 3,0 km/h (1 Bft)
24.08.2009 08:00 22,2 C 15,0 C 0,8 UV-I 0,8 C 51 % 79 % 22 % 1011,4 hPa 0,0 l/m 2,0 km/h (1 Bft) 0,00 h 5,7 km/h (1 Bft)
24.08.2009 09:00 22,2 C 17,1 C 1,3 UV-I 1,2 C 52 % 74 % 34 % 1010,8 hPa 0,0 l/m 5,9 km/h (2 Bft) 0,10 h 10,9 km/h (2 Bft)
24.08.2009 10:00 22,4 C 20,0 C 9,0 UV-I 5,2 C 53 % 67 % 100 % 1010,5 hPa 0,0 l/m 6,5 km/h (2 Bft) 0,90 h 10,9 km/h (2 Bft)
24.08.2009 11:00 22,7 C 23,3 C 13,2 UV-I 5,2 C 53 % 59 % 100 % 1010,2 hPa 0,0 l/m 3,9 km/h (1 Bft) 0,83 h 6,6 km/h (2 Bft)
24.08.2009 12:00 23,1 C 26,4 C 12,3 UV-I 4,7 C 52 % 50 % 100 % 1009,9 hPa 0,0 l/m 2,9 km/h (1 Bft) 0,93 h 5,3 km/h (1 Bft)
24.08.2009 13:00 23,7 C 28,6 C 5,0 UV-I 4,0 C 52 % 45 % 99 % 1009,5 hPa 0,0 l/m 3,3 km/h (1 Bft) 0,80 h 7,7 km/h (2 Bft)
24.08.2009 14:00 25,4 C 30,6 C 9,3 UV-I 3,1 C 50 % 41 % 86 % 1011,2 hPa 0,0 l/m 4,7 km/h (1 Bft) 0,33 h 10,3 km/h (2 Bft)
24.08.2009 15:00 27,3 C 31,8 C 11,2 UV-I 2,9 C 45 % 37 % 84 % 1012,4 hPa 0,0 l/m 4,9 km/h (1 Bft) 0,20 h 7,4 km/h (2 Bft)
24.08.2009 16:00 28,8 C 32,5 C 3,6 UV-I 3,5 C 42 % 34 % 94 % 1012,4 hPa 0,0 l/m 4,0 km/h (1 Bft) 0,37 h 6,8 km/h (2 Bft)
24.08.2009 17:00 28,6 C 31,6 C 2,1 UV-I 2,0 C 41 % 34 % 54 % 1010,4 hPa 0,0 l/m 2,8 km/h (1 Bft) 0,17 h 3,9 km/h (1 Bft)
24.08.2009 18:00 27,2 C 30,0 C 1,2 UV-I 0,1 C 43 % 37 % 2 % 1008,2 hPa 0,0 l/m 1,1 km/h (1 Bft) 0,00 h 2,1 km/h (1 Bft)
24.08.2009 19:00 26,2 C 28,3 C 0,2 UV-I 0,0 C 46 % 44 % 0 % 1007,7 hPa 0,0 l/m 0,0 km/h (0 Bft) 0,00 h 0,0 km/h (0 Bft)
24.08.2009 20:00 25,7 C 26,3 C 0,0 UV-I 0,0 C 48 % 49 % 0 % 1008,1 hPa 0,0 l/m 0,0 km/h (0 Bft) 0,00 h 0,0 km/h (0 Bft)
24.08.2009 21:00 25,4 C 25,1 C 0,0 UV-I 0,0 C 49 % 51 % 0 % 1008,8 hPa 0,0 l/m 0,4 km/h (0 Bft) 0,00 h 1,5 km/h (1 Bft)
24.08.2009 22:00 25,2 C 23,9 C 0,0 UV-I 0,0 C 49 % 53 % 0 % 1008,7 hPa 0,0 l/m 0,2 km/h (0 Bft) 0,00 h 0,6 km/h (0 Bft)
24.08.2009 23:00 25,0 C 23,2 C 0,0 UV-I 0,0 C 50 % 56 % 0 % 1008,5 hPa 0,0 l/m 0,0 km/h (0 Bft) 0,00 h 0,0 km/h (0 Bft)
25.08.2009 00:00 24,9 C 22,4 C 0,0 UV-I 0,0 C 51 % 60 % 0 % 1008,4 hPa 0,0 l/m 0,1 km/h (0 Bft) 0,00 h 0,4 km/h (0 Bft)
25.08.2009 01:00 24,7 C 21,4 C 0,0 UV-I 0,0 C 52 % 63 % 0 % 1008,4 hPa 0,0 l/m 0,0 km/h (0 Bft) 0,00 h 0,0 km/h (0 Bft)
25.08.2009 02:00 24,5 C 20,3 C 0,0 UV-I 0,0 C 53 % 67 % 0 % 1008,2 hPa 0,0 l/m 0,1 km/h (0 Bft) 0,00 h 0,3 km/h (0 Bft)
25.08.2009 03:00 24,4 C 20,2 C 0,0 UV-I 0,0 C 53 % 69 % 0 % 1009,6 hPa 0,0 l/m 1,3 km/h (1 Bft) 0,00 h 3,1 km/h (1 Bft)
25.08.2009 04:00 24,2 C 19,7 C 0,0 UV-I 0,0 C 56 % 77 % 0 % 1010,2 hPa 0,4 l/m 1,9 km/h (1 Bft) 0,00 h 4,0 km/h (1 Bft)
25.08.2009 05:00 24,0 C 18,7 C 0,0 UV-I 0,0 C 58 % 83 % 0 % 1010,1 hPa 1,2 l/m 0,1 km/h (0 Bft) 0,00 h 0,4 km/h (0 Bft)
25.08.2009 06:00 23,8 C 18,0 C 0,0 UV-I 0,0 C 60 % 86 % 0 % 1009,4 hPa 0,0 l/m 0,0 km/h (0 Bft) 0,00 h 0,0 km/h (0 Bft)
25.08.2009 07:00 23,6 C 17,7 C 0,0 UV-I 0,0 C 61 % 89 % 0 % 1010,0 hPa 0,0 l/m 0,7 km/h (0 Bft) 0,00 h 1,7 km/h (1 Bft)
25.08.2009 08:00 23,6 C 17,8 C 0,1 UV-I 0,0 C 62 % 90 % 0 % 1010,3 hPa 0,1 l/m 0,4 km/h (0 Bft) 0,00 h 0,9 km/h (0 Bft)
25.08.2009 09:00 23,6 C 18,2 C 0,4 UV-I 0,0 C 62 % 90 % 0 % 1010,4 hPa 0,0 l/m 0,3 km/h (0 Bft) 0,00 h 1,1 km/h (1 Bft)
25.08.2009 10:00 23,6 C 18,6 C 0,3 UV-I 0,0 C 63 % 90 % 0 % 1011,1 hPa 0,6 l/m 1,6 km/h (1 Bft) 0,00 h 3,9 km/h (1 Bft)
25.08.2009 11:00 23,5 C 18,8 C 1,2 UV-I 0,1 C 65 % 90 % 3 % 1011,2 hPa 0,6 l/m 2,9 km/h (1 Bft) 0,00 h 5,3 km/h (1 Bft)
25.08.2009 12:00 23,8 C 19,7 C 1,7 UV-I 0,6 C 64 % 89 % 18 % 1011,2 hPa 0,0 l/m 2,0 km/h (1 Bft) 0,00 h 3,3 km/h (1 Bft)
25.08.2009 13:00 24,2 C 21,2 C 3,2 UV-I 1,7 C 63 % 85 % 48 % 1011,4 hPa 0,0 l/m 1,8 km/h (1 Bft) 0,00 h 4,6 km/h (1 Bft)
25.08.2009 14:00 24,5 C 22,5 C 3,0 UV-I 1,3 C 62 % 79 % 37 % 1011,9 hPa 0,0 l/m 3,4 km/h (1 Bft) 0,00 h 6,3 km/h (2 Bft)
25.08.2009 15:00 24,7 C 23,2 C 2,5 UV-I 0,9 C 61 % 74 % 26 % 1012,1 hPa 0,0 l/m 2,2 km/h (1 Bft) 0,00 h 7,1 km/h (2 Bft)
25.08.2009 16:00 25,0 C 23,6 C 2,0 UV-I 1,0 C 60 % 70 % 29 % 1012,5 hPa 0,0 l/m 3,6 km/h (1 Bft) 0,00 h 7,5 km/h (2 Bft)
25.08.2009 18:00 24,8 C 22,3 C 0,5 UV-I 0,1 C 60 % 72 % 4 % 1012,7 hPa 0,0 l/m 0,9 km/h (0 Bft) 0,00 h 1,3 km/h (1 Bft)
25.08.2009 19:00 24,7 C 21,9 C 0,3 UV-I 0,0 C 60 % 72 % 0 % 1012,6 hPa 0,0 l/m 1,4 km/h (1 Bft) 0,00 h 3,0 km/h (1 Bft)
25.08.2009 20:00 24,3 C 20,8 C 0,0 UV-I 0,0 C 60 % 75 % 0 % 1013,4 hPa 0,0 l/m 1,8 km/h (1 Bft) 0,00 h 2,2 km/h (1 Bft)
25.08.2009 21:00 24,0 C 19,9 C 0,0 UV-I 0,0 C 60 % 76 % 0 % 1014,1 hPa 0,0 l/m 2,0 km/h (1 Bft) 0,00 h 3,2 km/h (1 Bft)
25.08.2009 22:00 23,7 C 19,0 C 0,0 UV-I 0,0 C 60 % 78 % 0 % 1014,8 hPa 0,0 l/m 0,3 km/h (0 Bft) 0,00 h 0,9 km/h (0 Bft)
25.08.2009 23:00 23,4 C 17,5 C 0,0 UV-I 0,0 C 60 % 80 % 0 % 1015,0 hPa 0,0 l/m 0,0 km/h (0 Bft) 0,00 h 0,0 km/h (0 Bft)
26.08.2009 00:00 23,1 C 15,9 C 0,0 UV-I 0,0 C 60 % 84 % 0 % 1015,1 hPa 0,0 l/m 0,0 km/h (0 Bft) 0,00 h 0,0 km/h (0 Bft)
26.08.2009 01:00 22,8 C 14,8 C 0,0 UV-I 0,0 C 60 % 87 % 0 % 1015,3 hPa 0,0 l/m 0,0 km/h (0 Bft) 0,00 h 0,0 km/h (0 Bft)
26.08.2009 02:00 22,5 C 13,9 C 0,0 UV-I 0,0 C 59 % 89 % 0 % 1015,4 hPa 0,0 l/m 0,0 km/h (0 Bft) 0,00 h 0,0 km/h (0 Bft)
26.08.2009 03:00 22,2 C 13,2 C 0,0 UV-I 0,0 C 58 % 90 % 0 % 1015,6 hPa 0,0 l/m 0,0 km/h (0 Bft) 0,00 h 0,0 km/h (0 Bft)
26.08.2009 04:00 21,9 C 12,8 C 0,0 UV-I 0,0 C 58 % 91 % 0 % 1015,9 hPa 0,0 l/m 0,0 km/h (0 Bft) 0,00 h 0,0 km/h (0 Bft)
26.08.2009 05:00 21,7 C 12,4 C 0,0 UV-I 0,0 C 58 % 91 % 0 % 1015,8 hPa 0,0 l/m 0,0 km/h (0 Bft) 0,00 h 0,0 km/h (0 Bft)
26.08.2009 06:00 21,5 C 12,3 C 0,0 UV-I 0,0 C 58 % 92 % 0 % 1015,8 hPa 0,0 l/m 0,8 km/h (0 Bft) 0,00 h 2,5 km/h (1 Bft)
26.08.2009 07:00 21,3 C 12,4 C 0,1 UV-I 0,0 C 58 % 93 % 0 % 1015,9 hPa 0,0 l/m 0,9 km/h (0 Bft) 0,00 h 2,8 km/h (1 Bft)
26.08.2009 08:00 21,5 C 13,5 C 0,6 UV-I 0,4 C 59 % 93 % 12 % 1016,2 hPa 0,0 l/m 2,3 km/h (1 Bft) 0,00 h 4,3 km/h (1 Bft)
26.08.2009 09:00 21,7 C 15,3 C 1,1 UV-I 1,4 C 60 % 91 % 39 % 1016,7 hPa 0,0 l/m 2,0 km/h (1 Bft) 0,10 h 4,4 km/h (1 Bft)
26.08.2009 10:00 21,9 C 18,2 C 7,9 UV-I 5,8 C 59 % 80 % 100 % 1016,9 hPa 0,0 l/m 5,9 km/h (2 Bft) 0,93 h 10,7 km/h (2 Bft)
26.08.2009 11:00 22,1 C 21,6 C 13,1 UV-I 4,0 C 57 % 62 % 100 % 1017,1 hPa 0,0 l/m 8,3 km/h (2 Bft) 0,83 h 13,2 km/h (3 Bft)
26.08.2009 12:00 22,5 C 24,3 C 10,8 UV-I 3,3 C 54 % 49 % 89 % 1016,7 hPa 0,0 l/m 6,4 km/h (2 Bft) 0,60 h 10,0 km/h (2 Bft)
26.08.2009 13:00 23,3 C 25,7 C 5,4 UV-I 3,2 C 52 % 44 % 86 % 1016,7 hPa 0,0 l/m 5,5 km/h (1 Bft) 0,60 h 11,1 km/h (2 Bft)
26.08.2009 14:00 24,7 C 26,7 C 7,6 UV-I 2,5 C 48 % 40 % 70 % 1018,2 hPa 0,0 l/m 6,0 km/h (2 Bft) 0,20 h 8,0 km/h (2 Bft)
26.08.2009 15:00 25,7 C 26,5 C 5,0 UV-I 1,7 C 44 % 39 % 49 % 1018,3 hPa 0,0 l/m 3,8 km/h (1 Bft) 0,00 h 7,2 km/h (2 Bft)
26.08.2009 16:00 26,2 C 26,4 C 3,1 UV-I 2,6 C 43 % 40 % 71 % 1017,9 hPa 0,0 l/m 4,1 km/h (1 Bft) 0,33 h 6,6 km/h (2 Bft)
26.08.2009 17:00 26,3 C 26,4 C 1,7 UV-I 1,8 C 44 % 41 % 44 % 1017,3 hPa 0,0 l/m 2,3 km/h (1 Bft) 0,30 h 5,1 km/h (1 Bft)
26.08.2009 18:00 25,5 C 25,3 C 0,7 UV-I 0,0 C 46 % 44 % 0 % 1015,9 hPa 0,0 l/m 1,5 km/h (1 Bft) 0,00 h 4,2 km/h (1 Bft)
26.08.2009 19:00 25,2 C 24,6 C 0,4 UV-I 0,0 C 46 % 44 % 1 % 1015,2 hPa 0,0 l/m 2,7 km/h (1 Bft) 0,00 h 5,8 km/h (2 Bft)
26.08.2009 20:00 24,7 C 23,4 C 0,0 UV-I 0,0 C 47 % 49 % 0 % 1015,0 hPa 0,0 l/m 0,4 km/h (0 Bft) 0,00 h 1,4 km/h (1 Bft)
26.08.2009 21:00 24,3 C 21,9 C 0,0 UV-I 0,0 C 51 % 56 % 0 % 1015,3 hPa 0,0 l/m 0,0 km/h (0 Bft) 0,00 h 0,2 km/h (0 Bft)
26.08.2009 22:00 24,0 C 20,1 C 0,0 UV-I 0,0 C 52 % 62 % 0 % 1015,6 hPa 0,0 l/m 0,0 km/h (0 Bft) 0,00 h 0,0 km/h (0 Bft)
26.08.2009 23:00 23,6 C 18,7 C 0,0 UV-I 0,0 C 54 % 69 % 0 % 1015,8 hPa 0,0 l/m 0,1 km/h (0 Bft) 0,00 h 0,5 km/h (0 Bft)
27.08.2009 00:00 23,3 C 18,0 C 0,0 UV-I 0,0 C 55 % 73 % 0 % 1015,7 hPa 0,0 l/m 0,0 km/h (0 Bft) 0,00 h 0,0 km/h (0 Bft)
27.08.2009 01:00 23,2 C 17,2 C 0,0 UV-I 0,0 C 56 % 77 % 0 % 1015,8 hPa 0,0 l/m 0,0 km/h (0 Bft) 0,00 h 0,4 km/h (0 Bft)
27.08.2009 02:00 22,9 C 16,5 C 0,0 UV-I 0,0 C 57 % 79 % 0 % 1015,7 hPa 0,0 l/m 0,3 km/h (0 Bft) 0,00 h 1,0 km/h (0 Bft)
27.08.2009 03:00 22,8 C 16,1 C 0,0 UV-I 0,0 C 57 % 81 % 0 % 1015,7 hPa 0,0 l/m 0,1 km/h (0 Bft) 0,00 h 0,2 km/h (0 Bft)
27.08.2009 04:00 22,6 C 15,8 C 0,0 UV-I 0,0 C 57 % 83 % 0 % 1015,5 hPa 0,0 l/m 0,4 km/h (0 Bft) 0,00 h 0,8 km/h (0 Bft)
27.08.2009 05:00 22,4 C 15,3 C 0,0 UV-I 0,0 C 57 % 84 % 0 % 1015,4 hPa 0,0 l/m 0,0 km/h (0 Bft) 0,00 h 0,0 km/h (0 Bft)
27.08.2009 06:00 22,3 C 14,9 C 0,0 UV-I 0,0 C 58 % 85 % 0 % 1015,4 hPa 0,0 l/m 0,2 km/h (0 Bft) 0,00 h 0,6 km/h (0 Bft)
27.08.2009 07:00 22,2 C 15,0 C 0,2 UV-I 0,0 C 58 % 87 % 0 % 1015,4 hPa 0,0 l/m 0,2 km/h (0 Bft) 0,00 h 0,6 km/h (0 Bft)
27.08.2009 08:00 22,3 C 16,0 C 0,8 UV-I 1,0 C 59 % 86 % 29 % 1015,9 hPa 0,0 l/m 1,2 km/h (1 Bft) 0,00 h 2,5 km/h (1 Bft)
27.08.2009 09:00 22,5 C 18,3 C 1,2 UV-I 2,2 C 59 % 80 % 60 % 1016,2 hPa 0,0 l/m 1,6 km/h (1 Bft) 0,07 h 3,8 km/h (1 Bft)
27.08.2009 10:00 23,0 C 22,2 C 10,9 UV-I 6,8 C 57 % 65 % 100 % 1016,5 hPa 0,0 l/m 3,7 km/h (1 Bft) 0,87 h 6,9 km/h (2 Bft)
27.08.2009 11:00 23,3 C 25,3 C 14,4 UV-I 5,6 C 56 % 54 % 100 % 1016,5 hPa 0,0 l/m 4,4 km/h (1 Bft) 0,73 h 9,2 km/h (2 Bft)
27.08.2009 12:00 23,6 C 26,9 C 12,4 UV-I 4,3 C 55 % 47 % 100 % 1016,3 hPa 0,0 l/m 6,2 km/h (2 Bft) 0,63 h 12,6 km/h (3 Bft)
27.08.2009 13:00 24,2 C 27,9 C 5,9 UV-I 3,7 C 54 % 45 % 97 % 1016,5 hPa 0,0 l/m 6,5 km/h (2 Bft) 0,58 h 11,3 km/h (2 Bft)
27.08.2009 14:00 25,7 C 28,9 C 7,4 UV-I 3,0 C 51 % 44 % 80 % 1018,0 hPa 0,0 l/m 5,9 km/h (2 Bft) 0,40 h 11,4 km/h (2 Bft)
27.08.2009 15:00 26,1 C 28,2 C 3,1 UV-I 0,8 C 50 % 45 % 24 % 1017,6 hPa 0,0 l/m 5,2 km/h (1 Bft) 0,00 h 8,2 km/h (2 Bft)
27.08.2009 16:00 26,0 C 27,6 C 2,4 UV-I 1,0 C 51 % 48 % 29 % 1016,7 hPa 0,0 l/m 4,5 km/h (1 Bft) 0,00 h 8,0 km/h (2 Bft)
27.08.2009 17:00 25,9 C 27,1 C 1,7 UV-I 0,9 C 51 % 49 % 26 % 1016,2 hPa 0,0 l/m 4,7 km/h (1 Bft) 0,00 h 8,2 km/h (2 Bft)
27.08.2009 18:00 25,6 C 26,8 C 0,9 UV-I 0,6 C 52 % 53 % 16 % 1015,8 hPa 0,0 l/m 3,0 km/h (1 Bft) 0,00 h 5,7 km/h (1 Bft)
27.08.2009 19:00 25,5 C 25,8 C 0,2 UV-I 0,0 C 53 % 56 % 0 % 1015,3 hPa 0,0 l/m 1,7 km/h (1 Bft) 0,00 h 3,9 km/h (1 Bft)
27.08.2009 20:00 25,2 C 24,6 C 0,0 UV-I 0,0 C 54 % 61 % 0 % 1014,7 hPa 0,0 l/m 0,0 km/h (0 Bft) 0,00 h 0,0 km/h (0 Bft)
27.08.2009 21:00 24,9 C 23,1 C 0,0 UV-I 0,0 C 56 % 66 % 0 % 1014,8 hPa 0,0 l/m 0,0 km/h (0 Bft) 0,00 h 0,0 km/h (0 Bft)
27.08.2009 22:00 24,7 C 21,7 C 0,0 UV-I 0,0 C 57 % 70 % 0 % 1014,7 hPa 0,0 l/m 0,4 km/h (0 Bft) 0,00 h 0,7 km/h (0 Bft)
27.08.2009 23:00 24,6 C 20,8 C 0,0 UV-I 0,0 C 58 % 72 % 0 % 1014,2 hPa 0,0 l/m 1,1 km/h (1 Bft) 0,00 h 3,1 km/h (1 Bft)
28.08.2009 00:00 24,4 C 20,7 C 0,0 UV-I 0,1 C 58 % 74 % 0 % 1014,1 hPa 0,0 l/m 1,1 km/h (1 Bft) 0,00 h 3,4 km/h (1 Bft)
28.08.2009 01:00 24,4 C 21,2 C 0,0 UV-I 0,0 C 58 % 73 % 0 % 1013,7 hPa 0,0 l/m 1,0 km/h (0 Bft) 0,00 h 2,1 km/h (1 Bft)
28.08.2009 02:00 24,3 C 20,9 C 0,0 UV-I 0,0 C 58 % 74 % 0 % 1013,2 hPa 0,0 l/m 2,1 km/h (1 Bft) 0,00 h 6,4 km/h (2 Bft)
28.08.2009 03:00 24,2 C 20,8 C 0,0 UV-I 0,0 C 59 % 74 % 0 % 1013,0 hPa 0,0 l/m 1,0 km/h (0 Bft) 0,00 h 2,0 km/h (1 Bft)
28.08.2009 04:00 24,1 C 20,0 C 0,0 UV-I 0,0 C 60 % 78 % 0 % 1012,9 hPa 0,0 l/m 1,1 km/h (1 Bft) 0,00 h 2,2 km/h (1 Bft)
28.08.2009 05:00 24,0 C 19,1 C 0,0 UV-I 0,0 C 60 % 80 % 0 % 1012,9 hPa 0,0 l/m 0,9 km/h (0 Bft) 0,00 h 2,0 km/h (1 Bft)
28.08.2009 06:00 23,8 C 18,6 C 0,0 UV-I 0,0 C 60 % 80 % 0 % 1012,7 hPa 0,0 l/m 0,8 km/h (0 Bft) 0,00 h 3,0 km/h (1 Bft)
28.08.2009 07:00 23,7 C 18,3 C 0,0 UV-I 0,0 C 60 % 81 % 0 % 1012,5 hPa 0,0 l/m 1,3 km/h (1 Bft) 0,00 h 4,3 km/h (1 Bft)
28.08.2009 08:00 23,6 C 18,1 C 0,4 UV-I 0,0 C 59 % 79 % 1 % 1012,5 hPa 0,0 l/m 2,4 km/h (1 Bft) 0,00 h 5,4 km/h (1 Bft)
28.08.2009 09:00 23,4 C 18,9 C 1,1 UV-I 0,7 C 58 % 74 % 21 % 1012,4 hPa 0,0 l/m 5,2 km/h (1 Bft) 0,00 h 9,6 km/h (2 Bft)
28.08.2009 10:00 23,3 C 19,2 C 0,9 UV-I 0,2 C 57 % 73 % 6 % 1012,6 hPa 0,0 l/m 6,6 km/h (2 Bft) 0,00 h 11,4 km/h (2 Bft)
28.08.2009 11:00 23,3 C 18,9 C 2,6 UV-I 0,9 C 58 % 75 % 27 % 1013,2 hPa 0,1 l/m 6,5 km/h (2 Bft) 0,00 h 12,9 km/h (3 Bft)
28.08.2009 12:00 23,5 C 20,3 C 7,1 UV-I 3,5 C 57 % 69 % 85 % 1013,4 hPa 0,0 l/m 7,7 km/h (2 Bft) 0,67 h 12,0 km/h (2 Bft)
28.08.2009 13:00 23,9 C 22,5 C 4,9 UV-I 3,9 C 51 % 50 % 98 % 1013,8 hPa 0,0 l/m 7,6 km/h (2 Bft) 0,87 h 13,6 km/h (3 Bft)
28.08.2009 14:00 24,7 C 22,4 C 3,6 UV-I 1,2 C 46 % 45 % 34 % 1014,9 hPa 0,0 l/m 7,8 km/h (2 Bft) 0,03 h 13,3 km/h (3 Bft)
28.08.2009 15:00 24,7 C 21,5 C 3,5 UV-I 0,9 C 43 % 44 % 27 % 1015,1 hPa 0,0 l/m 7,0 km/h (2 Bft) 0,00 h 11,2 km/h (2 Bft)
28.08.2009 16:00 25,0 C 21,7 C 2,2 UV-I 2,2 C 41 % 43 % 63 % 1015,4 hPa 0,0 l/m 6,4 km/h (2 Bft) 0,20 h 10,6 km/h (2 Bft)
28.08.2009 17:00 25,1 C 21,7 C 1,3 UV-I 0,6 C 39 % 42 % 18 % 1015,4 hPa 0,0 l/m 8,6 km/h (2 Bft) 0,00 h 15,4 km/h (3 Bft)
28.08.2009 18:00 24,4 C 21,2 C 1,1 UV-I 0,1 C 38 % 40 % 2 % 1014,6 hPa 0,0 l/m 8,5 km/h (2 Bft) 0,00 h 15,6 km/h (3 Bft)
28.08.2009 19:00 24,0 C 20,2 C 0,3 UV-I 0,0 C 37 % 40 % 0 % 1014,6 hPa 0,0 l/m 7,2 km/h (2 Bft) 0,00 h 10,7 km/h (2 Bft)
28.08.2009 20:00 23,3 C 19,0 C 0,0 UV-I 0,0 C 37 % 41 % 0 % 1014,4 hPa 0,0 l/m 4,3 km/h (1 Bft) 0,00 h 8,3 km/h (2 Bft)
28.08.2009 21:00 23,0 C 17,9 C 0,0 UV-I 0,0 C 38 % 46 % 0 % 1015,0 hPa 0,0 l/m 3,1 km/h (1 Bft) 0,00 h 6,3 km/h (2 Bft)
28.08.2009 22:00 23,0 C 17,0 C 0,0 UV-I 0,0 C 39 % 51 % 0 % 1015,5 hPa 0,0 l/m 3,5 km/h (1 Bft) 0,00 h 6,2 km/h (2 Bft)
28.08.2009 23:00 22,5 C 16,2 C 0,0 UV-I 0,0 C 41 % 55 % 0 % 1015,6 hPa 0,0 l/m 2,6 km/h (1 Bft) 0,00 h 5,0 km/h (1 Bft)
29.08.2009 00:00 22,2 C 15,8 C 0,0 UV-I 0,0 C 43 % 60 % 0 % 1015,8 hPa 0,0 l/m 3,3 km/h (1 Bft) 0,00 h 7,6 km/h (2 Bft)
29.08.2009 01:00 22,0 C 15,8 C 0,0 UV-I 0,0 C 45 % 64 % 0 % 1015,9 hPa 0,0 l/m 4,3 km/h (1 Bft) 0,00 h 8,2 km/h (2 Bft)
29.08.2009 02:00 21,9 C 15,6 C 0,0 UV-I 0,0 C 48 % 70 % 0 % 1016,1 hPa 0,0 l/m 2,8 km/h (1 Bft) 0,00 h 8,6 km/h (2 Bft)
29.08.2009 03:00 21,9 C 14,1 C 0,0 UV-I 0,0 C 49 % 73 % 0 % 1016,0 hPa 0,0 l/m 0,7 km/h (0 Bft) 0,00 h 1,4 km/h (1 Bft)
29.08.2009 04:00 21,6 C 13,2 C 0,0 UV-I 0,0 C 50 % 78 % 0 % 1016,5 hPa 0,0 l/m 1,4 km/h (1 Bft) 0,00 h 4,4 km/h (1 Bft)
29.08.2009 05:00 21,2 C 12,5 C 0,0 UV-I 0,0 C 50 % 80 % 0 % 1016,4 hPa 0,0 l/m 2,0 km/h (1 Bft) 0,00 h 5,6 km/h (1 Bft)
29.08.2009 06:00 20,9 C 12,3 C 0,0 UV-I 0,0 C 52 % 83 % 0 % 1016,8 hPa 0,0 l/m 2,4 km/h (1 Bft) 0,00 h 4,5 km/h (1 Bft)
29.08.2009 07:00 20,8 C 12,5 C 0,1 UV-I 0,0 C 53 % 85 % 0 % 1017,5 hPa 0,0 l/m 2,9 km/h (1 Bft) 0,00 h 5,9 km/h (2 Bft)
29.08.2009 08:00 20,8 C 13,1 C 0,6 UV-I 0,0 C 53 % 84 % 1 % 1018,2 hPa 0,0 l/m 3,1 km/h (1 Bft) 0,00 h 6,0 km/h (2 Bft)
29.08.2009 09:00 20,8 C 14,3 C 1,4 UV-I 0,8 C 54 % 81 % 24 % 1018,9 hPa 0,0 l/m 5,6 km/h (1 Bft) 0,03 h 10,4 km/h (2 Bft)
29.08.2009 10:00 20,8 C 15,9 C 5,2 UV-I 3,7 C 54 % 75 % 94 % 1019,2 hPa 0,0 l/m 5,9 km/h (2 Bft) 0,73 h 8,9 km/h (2 Bft)
29.08.2009 11:00 21,1 C 17,7 C 7,6 UV-I 4,0 C 53 % 66 % 94 % 1020,0 hPa 0,0 l/m 6,4 km/h (2 Bft) 0,67 h 10,4 km/h (2 Bft)
29.08.2009 12:00 21,5 C 19,1 C 7,3 UV-I 3,8 C 51 % 57 % 92 % 1020,2 hPa 0,0 l/m 6,3 km/h (2 Bft) 0,70 h 10,0 km/h (2 Bft)
29.08.2009 13:00 22,4 C 20,5 C 4,2 UV-I 3,4 C 48 % 51 % 78 % 1020,9 hPa 0,0 l/m 6,6 km/h (2 Bft) 0,57 h 11,1 km/h (2 Bft)
29.08.2009 14:00 23,2 C 19,2 C 4,8 UV-I 1,4 C 46 % 55 % 39 % 1022,1 hPa 0,1 l/m 6,6 km/h (2 Bft) 0,13 h 13,0 km/h (3 Bft)
29.08.2009 15:00 24,1 C 19,9 C 5,4 UV-I 3,0 C 43 % 51 % 77 % 1023,2 hPa 0,0 l/m 6,5 km/h (2 Bft) 0,57 h 11,7 km/h (2 Bft)
29.08.2009 16:00 25,4 C 21,1 C 2,5 UV-I 4,6 C 37 % 42 % 96 % 1023,9 hPa 0,0 l/m 8,5 km/h (2 Bft) 0,90 h 18,0 km/h (3 Bft)
29.08.2009 17:00 25,3 C 21,0 C 1,7 UV-I 2,6 C 36 % 41 % 64 % 1022,9 hPa 0,0 l/m 8,1 km/h (2 Bft) 0,50 h 14,5 km/h (3 Bft)
29.08.2009 18:00 24,2 C 19,9 C 0,8 UV-I 0,2 C 37 % 41 % 6 % 1021,9 hPa 0,0 l/m 5,9 km/h (2 Bft) 0,00 h 11,2 km/h (2 Bft)
29.08.2009 19:00 23,5 C 18,7 C 0,2 UV-I 0,0 C 38 % 44 % 0 % 1022,0 hPa 0,0 l/m 5,0 km/h (1 Bft) 0,00 h 10,3 km/h (2 Bft)
29.08.2009 20:00 22,9 C 17,1 C 0,0 UV-I 0,0 C 38 % 47 % 0 % 1022,0 hPa 0,0 l/m 0,8 km/h (0 Bft) 0,00 h 1,3 km/h (1 Bft)
29.08.2009 21:00 22,3 C 14,7 C 0,0 UV-I 0,0 C 40 % 57 % 0 % 1022,0 hPa 0,0 l/m 0,0 km/h (0 Bft) 0,00 h 0,0 km/h (0 Bft)
29.08.2009 22:00 21,8 C 12,8 C 0,0 UV-I 0,0 C 42 % 66 % 0 % 1022,3 hPa 0,0 l/m 0,0 km/h (0 Bft) 0,00 h 0,0 km/h (0 Bft)
29.08.2009 23:00 21,4 C 11,7 C 0,0 UV-I 0,0 C 44 % 72 % 0 % 1022,1 hPa 0,0 l/m 0,0 km/h (0 Bft) 0,00 h 0,0 km/h (0 Bft)
30.08.2009 00:00 21,1 C 10,9 C 0,0 UV-I 0,0 C 45 % 75 % 0 % 1021,8 hPa 0,0 l/m 0,0 km/h (0 Bft) 0,00 h 0,0 km/h (0 Bft)
30.08.2009 01:00 20,9 C 10,2 C 0,0 UV-I 0,0 C 45 % 78 % 0 % 1021,3 hPa 0,0 l/m 0,0 km/h (0 Bft) 0,00 h 0,0 km/h (0 Bft)
30.08.2009 02:00 20,5 C 9,8 C 0,0 UV-I 0,0 C 46 % 81 % 0 % 1020,9 hPa 0,0 l/m 0,1 km/h (0 Bft) 0,00 h 0,5 km/h (0 Bft)
30.08.2009 03:00 20,2 C 10,2 C 0,0 UV-I 0,0 C 45 % 79 % 0 % 1020,6 hPa 0,0 l/m 1,0 km/h (0 Bft) 0,00 h 3,2 km/h (1 Bft)
30.08.2009 04:00 20,1 C 10,8 C 0,0 UV-I 0,0 C 45 % 77 % 0 % 1020,3 hPa 0,0 l/m 1,0 km/h (0 Bft) 0,00 h 3,0 km/h (1 Bft)
30.08.2009 05:00 19,9 C 10,7 C 0,0 UV-I 0,0 C 46 % 79 % 0 % 1020,2 hPa 0,0 l/m 1,7 km/h (1 Bft) 0,00 h 4,5 km/h (1 Bft)
30.08.2009 06:00 19,7 C 10,8 C 0,0 UV-I 0,0 C 48 % 81 % 0 % 1019,9 hPa 0,0 l/m 1,9 km/h (1 Bft) 0,00 h 4,8 km/h (1 Bft)
30.08.2009 07:00 19,6 C 11,1 C 0,1 UV-I 0,0 C 49 % 82 % 0 % 1020,0 hPa 0,0 l/m 2,2 km/h (1 Bft) 0,00 h 5,4 km/h (1 Bft)
30.08.2009 08:00 19,6 C 12,1 C 0,5 UV-I 0,2 C 51 % 83 % 6 % 1020,5 hPa 0,0 l/m 3,5 km/h (1 Bft) 0,00 h 6,7 km/h (2 Bft)
30.08.2009 09:00 19,6 C 13,9 C 1,3 UV-I 1,0 C 53 % 80 % 28 % 1020,5 hPa 0,0 l/m 4,8 km/h (1 Bft) 0,07 h 8,0 km/h (2 Bft)
30.08.2009 10:00 19,9 C 15,9 C 7,4 UV-I 5,3 C 53 % 74 % 100 % 1021,0 hPa 0,0 l/m 5,2 km/h (1 Bft) 0,97 h 8,7 km/h (2 Bft)
30.08.2009 11:00 20,9 C 18,0 C 5,0 UV-I 3,1 C 52 % 63 % 78 % 1021,8 hPa 0,0 l/m 4,7 km/h (1 Bft) 0,50 h 9,8 km/h (2 Bft)
30.08.2009 12:00 21,1 C 19,4 C 4,5 UV-I 2,7 C 49 % 56 % 71 % 1021,8 hPa 0,0 l/m 4,8 km/h (1 Bft) 0,47 h 9,8 km/h (2 Bft)
30.08.2009 13:00 21,3 C 19,3 C 1,8 UV-I 0,5 C 48 % 54 % 15 % 1021,5 hPa 0,0 l/m 4,0 km/h (1 Bft) 0,00 h 8,3 km/h (2 Bft)
30.08.2009 14:00 21,5 C 19,0 C 1,7 UV-I 0,8 C 48 % 56 % 22 % 1021,7 hPa 0,0 l/m 3,8 km/h (1 Bft) 0,00 h 7,8 km/h (2 Bft)
30.08.2009 15:00 22,2 C 20,1 C 3,9 UV-I 2,5 C 47 % 53 % 72 % 1022,2 hPa 0,0 l/m 4,8 km/h (1 Bft) 0,30 h 7,9 km/h (2 Bft)
30.08.2009 16:00 23,6 C 21,3 C 2,3 UV-I 2,9 C 44 % 48 % 65 % 1023,2 hPa 0,0 l/m 3,4 km/h (1 Bft) 0,37 h 6,4 km/h (2 Bft)
30.08.2009 17:00 23,4 C 21,2 C 1,5 UV-I 1,5 C 43 % 47 % 44 % 1021,6 hPa 0,0 l/m 3,0 km/h (1 Bft) 0,00 h 6,5 km/h (2 Bft)
30.08.2009 18:00 23,1 C 20,8 C 0,8 UV-I 0,4 C 43 % 47 % 10 % 1021,2 hPa 0,0 l/m 2,2 km/h (1 Bft) 0,00 h 3,9 km/h (1 Bft)
30.08.2009 19:00 22,7 C 19,8 C 0,1 UV-I 0,0 C 44 % 50 % 0 % 1020,9 hPa 0,0 l/m 1,0 km/h (0 Bft) 0,00 h 1,8 km/h (1 Bft)
30.08.2009 20:00 22,3 C 18,2 C 0,0 UV-I 0,0 C 46 % 58 % 0 % 1020,8 hPa 0,0 l/m 0,0 km/h (0 Bft) 0,00 h 0,0 km/h (0 Bft)
30.08.2009 21:00 21,9 C 16,0 C 0,0 UV-I 0,0 C 49 % 67 % 0 % 1020,8 hPa 0,0 l/m 0,0 km/h (0 Bft) 0,00 h 0,0 km/h (0 Bft)
30.08.2009 22:00 21,5 C 14,2 C 0,0 UV-I 0,0 C 50 % 74 % 0 % 1020,7 hPa 0,0 l/m 0,0 km/h (0 Bft) 0,00 h 0,0 km/h (0 Bft)
30.08.2009 23:00 21,1 C 12,9 C 0,0 UV-I 0,0 C 51 % 78 % 0 % 1020,3 hPa 0,0 l/m 0,0 km/h (0 Bft) 0,00 h 0,0 km/h (0 Bft)
Min-Datum _ 30.08.09 30.08.09 24.08.09 24.08.09 29.08.09 24.08.09 24.08.09 24.08.09 - 24.08.09 - 24.08.09
_ Min-Zeit 08:10 02:24 00:04 00:04 16:38 16:49 00:04 19:19 - 00:04 - 00:04
Minimum _ 19,5 C 9,6 C 0,0 UV-I 0,0 C 35 % 33 % 0 % 1007,6 hPa - 0,0 km/h (0 Bft) - 0,0 km/h (0 Bft)
Max-Datum _ 24.08.09 24.08.09 27.08.09 27.08.09 25.08.09 26.08.09 24.08.09 30.08.09 25.08.09 28.08.09 24.08.09 28.08.09
_ Max-Zeit 16:54 16:49 11:10 10:18 11:24 07:02 09:56 16:16 05:02 17:40 09:54 18:54
Maximum _ 29,1 C 32,7 C 15,3 UV-I 7,4 C 65 % 93 % 100 % 1024,6 hPa 1,2 l/m 12,3 km/h
O-NO (3 Bft)
0,03 h 44,3 km/h
W-SW (6 Bft)
Durchschnitt _ 23,3 C 19,2 C 1,8 UV-I 1,0 C 51 % 66 % 23 % 1015,6 hPa #3,0 l/m 2,6 km/h (1 Bft) #21:03 h 4,9 km/h (1 Bft)
© 2012 W. Hausmann